createdAt,value
2019-03-23T00:01:42.434Z,63.47
2019-03-23T00:03:46.808Z,63.55
2019-03-23T00:05:52.306Z,63.80
2019-03-23T00:07:56.686Z,63.99
2019-03-23T00:10:01.036Z,64.31
2019-03-23T00:12:05.578Z,64.52
2019-03-23T00:14:09.917Z,64.52
2019-03-23T00:16:15.371Z,64.50
2019-03-23T00:18:19.837Z,64.73
2019-03-23T00:20:24.112Z,65.04
2019-03-23T00:22:28.420Z,65.15
2019-03-23T00:24:32.788Z,65.34
2019-03-23T00:26:37.084Z,65.58
2019-03-23T00:28:41.471Z,65.39
2019-03-23T00:30:45.769Z,65.18
2019-03-23T00:32:50.223Z,65.15
2019-03-23T00:34:54.535Z,65.27
2019-03-23T00:36:58.864Z,65.48
2019-03-23T00:39:04.684Z,65.53
2019-03-23T00:41:09.093Z,65.70
2019-03-23T00:43:13.421Z,65.90
2019-03-23T00:45:17.740Z,65.92
2019-03-23T00:47:22.167Z,65.91
2019-03-23T00:49:27.490Z,65.99
2019-03-23T00:51:31.811Z,66.09
2019-03-23T00:53:37.170Z,66.34
2019-03-23T00:55:41.526Z,66.56
2019-03-23T00:57:45.933Z,66.55
2019-03-23T00:59:52.264Z,66.49
2019-03-23T01:01:56.655Z,66.61
2019-03-23T01:04:01.076Z,66.88
2019-03-23T01:06:05.546Z,67.27
2019-03-23T01:08:10.002Z,67.39
2019-03-23T01:10:14.628Z,67.29
2019-03-23T01:12:19.021Z,67.36
2019-03-23T01:14:24.389Z,67.44
2019-03-23T01:16:28.714Z,67.52
2019-03-23T01:18:35.184Z,67.64
2019-03-23T01:20:49.284Z,67.96
2019-03-23T01:22:46.612Z,68.17
2019-03-23T01:24:51.029Z,68.08
2019-03-23T01:26:55.444Z,68.05
2019-03-23T01:28:59.932Z,67.81
2019-03-23T01:31:06.493Z,67.78
2019-03-23T01:33:10.873Z,67.64
2019-03-23T01:35:15.292Z,67.48
2019-03-23T01:37:20.691Z,67.39
2019-03-23T01:39:26.013Z,67.45
2019-03-23T01:41:30.399Z,67.54
2019-03-23T01:43:35.775Z,67.60
2019-03-23T01:45:44.462Z,67.66
2019-03-23T01:47:49.808Z,67.84
2019-03-23T01:49:54.237Z,68.28
2019-03-23T01:51:58.714Z,68.40
2019-03-23T01:54:03.101Z,68.58
2019-03-23T01:56:07.478Z,68.72
2019-03-23T01:58:11.856Z,68.83
2019-03-23T02:00:16.387Z,68.79
2019-03-23T02:02:20.803Z,68.76
2019-03-23T02:04:25.145Z,68.84
2019-03-23T02:06:29.493Z,69.14
2019-03-23T02:08:33.817Z,69.15
2019-03-23T02:10:38.194Z,69.25
2019-03-23T02:12:43.543Z,69.37
2019-03-23T02:14:47.859Z,69.40
2019-03-23T02:16:52.174Z,69.34
2019-03-23T02:18:56.515Z,69.13
2019-03-23T02:21:01.659Z,69.09
2019-03-23T02:23:06.093Z,69.05
2019-03-23T02:25:10.716Z,69.11
2019-03-23T02:27:16.078Z,69.25
2019-03-23T02:29:20.437Z,69.11
2019-03-23T02:31:27.958Z,68.99
2019-03-23T02:33:32.301Z,69.08
2019-03-23T02:35:36.815Z,69.00
2019-03-23T02:37:42.109Z,69.06
2019-03-23T02:39:47.230Z,69.05
2019-03-23T02:41:52.704Z,69.08
2019-03-23T02:43:57.082Z,69.15
2019-03-23T02:46:01.576Z,69.27
2019-03-23T02:48:06.093Z,69.26
2019-03-23T02:50:10.982Z,69.13
2019-03-23T02:52:15.350Z,68.93
2019-03-23T02:54:19.700Z,68.89
2019-03-23T02:56:24.080Z,68.93
2019-03-23T02:58:29.437Z,68.99
2019-03-23T03:01:27.492Z,69.10
2019-03-23T03:03:31.928Z,69.12
2019-03-23T03:05:37.316Z,68.97
2019-03-23T03:07:43.512Z,68.88
2019-03-23T03:09:47.791Z,69.01
2019-03-23T03:11:53.168Z,69.26
2019-03-23T03:13:57.505Z,69.36
2019-03-23T03:16:01.927Z,69.62
2019-03-23T03:18:08.023Z,69.85
2019-03-23T03:20:12.595Z,69.87
2019-03-23T03:22:16.856Z,69.90
2019-03-23T03:24:21.259Z,69.93
2019-03-23T03:26:25.635Z,69.93
2019-03-23T03:28:32.001Z,69.94
2019-03-23T03:30:36.333Z,69.93
2019-03-23T03:32:41.836Z,69.98
2019-03-23T03:34:47.245Z,70.04
2019-03-23T03:36:51.645Z,70.12
2019-03-23T03:38:56.056Z,70.19
2019-03-23T03:41:00.344Z,70.35
2019-03-23T03:43:10.706Z,70.44
2019-03-23T03:45:22.235Z,70.65
2019-03-23T03:47:26.648Z,70.77
2019-03-23T03:49:31.087Z,70.83
2019-03-23T03:51:35.630Z,70.92
2019-03-23T03:53:41.033Z,71.01
2019-03-23T03:55:45.533Z,71.21
2019-03-23T03:57:50.095Z,71.44
2019-03-23T03:59:54.462Z,71.59
2019-03-23T04:01:58.897Z,71.71
2019-03-23T04:04:03.291Z,71.91
2019-03-23T04:06:07.655Z,72.00
2019-03-23T04:08:12.318Z,72.25
2019-03-23T04:10:16.805Z,72.45
2019-03-23T04:12:21.216Z,72.64
2019-03-23T04:14:26.606Z,72.72
2019-03-23T04:16:31.947Z,72.85
2019-03-23T04:18:37.260Z,72.87
2019-03-23T04:20:41.662Z,72.89
2019-03-23T04:22:45.936Z,72.98
2019-03-23T04:24:51.332Z,72.94
2019-03-23T04:26:55.684Z,73.08
2019-03-23T04:29:00.007Z,73.00
2019-03-23T04:31:04.461Z,73.00
2019-03-23T04:33:08.899Z,73.02
2019-03-23T04:35:14.413Z,73.24
2019-03-23T04:37:19.824Z,73.40
2019-03-23T04:39:24.259Z,73.42
2019-03-23T04:41:29.647Z,73.58
2019-03-23T04:43:33.968Z,73.66
2019-03-23T04:45:39.299Z,73.68
2019-03-23T04:47:43.689Z,73.73
2019-03-23T04:49:49.322Z,73.71
2019-03-23T04:51:54.870Z,73.72
2019-03-23T04:54:06.248Z,73.58
2019-03-23T04:56:10.768Z,73.51
2019-03-23T04:58:15.187Z,73.54
2019-03-23T05:00:20.125Z,73.65
2019-03-23T05:02:24.431Z,73.70
2019-03-23T05:04:30.704Z,73.72
2019-03-23T05:06:36.133Z,73.67
2019-03-23T05:08:41.482Z,73.67
2019-03-23T05:10:47.044Z,73.79
2019-03-23T05:12:58.224Z,73.72
2019-03-23T05:15:05.181Z,73.67
2019-03-23T05:17:10.579Z,73.72
2019-03-23T05:19:15.866Z,73.65
2019-03-23T05:21:20.321Z,73.90
2019-03-23T05:23:24.585Z,74.10
2019-03-23T05:25:30.433Z,74.01
2019-03-23T05:27:34.788Z,74.03
2019-03-23T05:29:39.111Z,73.88
2019-03-23T05:31:43.439Z,73.81
2019-03-23T05:33:48.939Z,73.75
2019-03-23T05:35:54.383Z,73.66
2019-03-23T05:37:58.796Z,73.78
2019-03-23T05:40:03.127Z,73.94
2019-03-23T05:42:07.517Z,74.07
2019-03-23T05:44:14.993Z,74.13
2019-03-23T05:46:20.397Z,74.16
2019-03-23T05:48:24.956Z,74.18
2019-03-23T05:50:29.311Z,74.18
2019-03-23T05:52:33.618Z,74.19
2019-03-23T05:54:37.972Z,74.13
2019-03-23T05:56:43.259Z,74.07
2019-03-23T05:58:47.673Z,73.99
2019-03-23T06:00:54.037Z,73.95
2019-03-23T06:03:00.416Z,73.77
2019-03-23T06:05:06.309Z,73.53
2019-03-23T06:07:10.682Z,73.64
2019-03-23T06:09:15.002Z,73.64
2019-03-23T06:11:20.343Z,73.72
2019-03-23T06:13:24.667Z,73.79
2019-03-23T06:15:29.996Z,73.86
2019-03-23T06:17:34.362Z,73.88
2019-03-23T06:19:38.737Z,73.98
2019-03-23T06:21:44.146Z,73.93
2019-03-23T06:23:48.549Z,74.19
2019-03-23T06:25:57.173Z,74.87
2019-03-23T06:28:01.492Z,75.21
2019-03-23T06:30:07.595Z,73.19
2019-03-23T06:32:12.975Z,68.15
2019-03-23T06:34:17.338Z,62.37
2019-03-23T06:36:22.687Z,57.38
2019-03-23T06:38:27.037Z,53.74
2019-03-23T06:40:31.404Z,51.13
2019-03-23T06:42:35.791Z,50.16
2019-03-23T06:44:40.113Z,50.88
2019-03-23T06:46:46.551Z,51.30
2019-03-23T06:48:50.930Z,51.46
2019-03-23T06:50:55.270Z,48.99
2019-03-23T06:52:59.631Z,45.98
2019-03-23T06:55:04.632Z,43.31
2019-03-23T06:57:09.077Z,41.45
2019-03-23T06:59:13.485Z,39.26
2019-03-23T07:01:17.832Z,37.47
2019-03-23T07:03:24.269Z,35.91
2019-03-23T07:05:28.671Z,34.54
2019-03-23T07:07:33.028Z,33.45
2019-03-23T07:09:39.416Z,32.50
2019-03-23T07:11:43.805Z,32.07
2019-03-23T07:13:48.148Z,31.22
2019-03-23T07:15:54.490Z,29.66
2019-03-23T07:17:58.839Z,29.18
2019-03-23T07:20:03.336Z,28.36
2019-03-23T07:22:07.834Z,27.72
2019-03-23T07:24:12.188Z,27.04
2019-03-23T07:26:16.707Z,26.27
2019-03-23T07:28:21.077Z,25.83
2019-03-23T07:30:25.492Z,25.54
2019-03-23T07:32:29.860Z,25.26
2019-03-23T07:34:34.221Z,24.37
2019-03-23T07:36:38.569Z,24.06
2019-03-23T07:38:42.851Z,24.47
2019-03-23T07:40:47.219Z,24.42
2019-03-23T07:42:51.600Z,23.93
2019-03-23T07:44:55.917Z,23.41
2019-03-23T07:47:00.297Z,22.77
2019-03-23T07:49:04.823Z,22.18
2019-03-23T07:51:09.312Z,21.54
2019-03-23T07:53:13.804Z,21.51
2019-03-23T07:55:18.121Z,21.24
2019-03-23T07:57:22.411Z,20.63
2019-03-23T07:59:26.719Z,20.82
2019-03-23T08:01:31.086Z,21.08
2019-03-23T08:03:35.539Z,21.10
2019-03-23T08:05:40.929Z,21.16
2019-03-23T08:07:46.410Z,21.27
2019-03-23T08:09:50.785Z,21.17
2019-03-23T08:11:56.121Z,21.04
2019-03-23T08:14:00.431Z,20.32
2019-03-23T08:16:05.845Z,19.49
2019-03-23T08:18:10.170Z,19.18
2019-03-23T08:20:19.566Z,18.86
2019-03-23T08:22:23.914Z,19.17
2019-03-23T08:24:28.293Z,19.70
2019-03-23T08:26:32.654Z,19.61
2019-03-23T08:28:37.027Z,20.14
2019-03-23T08:30:41.425Z,20.45
2019-03-23T08:32:45.773Z,20.04
2019-03-23T08:34:53.187Z,19.11
2019-03-23T08:36:58.562Z,18.56
2019-03-23T08:39:06.035Z,18.40
2019-03-23T08:41:11.341Z,18.53
2019-03-23T08:43:15.745Z,18.46
2019-03-23T08:45:20.239Z,18.62
2019-03-23T08:47:24.598Z,18.32
2019-03-23T08:49:30.964Z,17.93
2019-03-23T08:51:36.364Z,17.77
2019-03-23T08:53:42.716Z,17.27
2019-03-23T08:55:48.030Z,16.84
2019-03-23T08:57:52.370Z,16.95
2019-03-23T08:59:59.802Z,17.68
2019-03-23T09:02:04.206Z,18.24
2019-03-23T09:04:08.557Z,18.09
2019-03-23T09:06:12.932Z,18.23
2019-03-23T09:08:18.593Z,17.87
2019-03-23T09:10:23.038Z,17.45
2019-03-23T09:12:33.359Z,17.29
2019-03-23T09:14:39.776Z,17.43
2019-03-23T09:16:48.262Z,17.89
2019-03-23T09:18:52.648Z,18.20
2019-03-23T09:20:58.024Z,17.73
2019-03-23T09:23:02.357Z,17.39
2019-03-23T09:25:10.434Z,17.57
2019-03-23T09:27:15.024Z,17.45
2019-03-23T09:29:19.334Z,18.43
2019-03-23T09:31:23.744Z,19.51
2019-03-23T09:33:28.232Z,19.37
2019-03-23T09:35:34.633Z,19.31
2019-03-23T09:37:40.197Z,19.31
2019-03-23T09:39:45.686Z,19.02
2019-03-23T09:41:52.242Z,18.57
2019-03-23T09:43:56.737Z,18.09
2019-03-23T09:46:08.905Z,17.95
2019-03-23T09:48:14.436Z,17.81
2019-03-23T09:50:20.822Z,17.82
2019-03-23T09:52:27.196Z,17.43
2019-03-23T09:54:31.556Z,16.84
2019-03-23T09:56:40.006Z,16.53
2019-03-23T09:58:44.537Z,17.08
2019-03-23T10:00:49.043Z,17.47
2019-03-23T10:02:54.552Z,17.70
2019-03-23T10:04:59.141Z,17.88
2019-03-23T10:07:04.610Z,18.25
2019-03-23T10:09:09.042Z,17.51
2019-03-23T10:11:13.891Z,17.06
2019-03-23T10:13:21.393Z,16.81
2019-03-23T10:15:27.081Z,16.76
2019-03-23T10:17:31.413Z,16.86
2019-03-23T10:19:35.725Z,16.86
2019-03-23T10:21:41.044Z,16.94
2019-03-23T10:23:45.397Z,17.12
2019-03-23T10:25:49.776Z,17.08
2019-03-23T10:27:55.154Z,16.57
2019-03-23T10:29:59.592Z,15.96
2019-03-23T10:32:04.963Z,15.66
2019-03-23T10:34:09.293Z,15.57
2019-03-23T10:36:13.664Z,15.71
2019-03-23T10:38:18.066Z,15.65
2019-03-23T10:40:31.858Z,15.96
2019-03-23T10:42:28.577Z,15.82
2019-03-23T10:44:32.917Z,16.10
2019-03-23T10:46:37.215Z,15.89
2019-03-23T10:48:41.608Z,15.99
2019-03-23T10:50:45.962Z,15.39
2019-03-23T10:52:50.343Z,15.78
2019-03-23T10:54:55.723Z,15.50
2019-03-23T10:57:01.152Z,15.57
2019-03-23T10:59:05.562Z,15.17
2019-03-23T11:01:09.883Z,15.05
2019-03-23T11:03:14.307Z,15.09
2019-03-23T11:05:19.659Z,14.76
2019-03-23T11:07:24.019Z,14.36
2019-03-23T11:09:29.500Z,14.06
2019-03-23T11:11:33.835Z,13.98
2019-03-23T11:13:39.154Z,14.28
2019-03-23T11:15:44.568Z,14.13
2019-03-23T11:17:51.096Z,13.85
2019-03-23T11:19:55.559Z,13.97
2019-03-23T11:21:59.879Z,14.29
2019-03-23T11:24:04.282Z,13.95
2019-03-23T11:26:08.677Z,14.40
2019-03-23T11:28:12.949Z,14.24
2019-03-23T11:30:17.345Z,13.74
2019-03-23T11:32:21.709Z,13.09
2019-03-23T11:34:26.119Z,13.01
2019-03-23T11:36:30.507Z,13.05
2019-03-23T11:38:34.894Z,13.14
2019-03-23T11:40:39.998Z,12.55
2019-03-23T11:42:49.810Z,12.46
2019-03-23T11:44:50.639Z,12.41
2019-03-23T11:46:54.935Z,12.21
2019-03-23T11:48:59.268Z,12.08
2019-03-23T11:51:04.688Z,11.90
2019-03-23T11:53:09.112Z,11.25
2019-03-23T11:55:13.598Z,11.45
2019-03-23T11:57:18.178Z,12.02
2019-03-23T11:59:22.500Z,12.24
2019-03-23T12:01:26.835Z,12.18
2019-03-23T12:03:31.272Z,12.17
2019-03-23T12:05:35.625Z,11.90
2019-03-23T12:07:40.003Z,11.81
2019-03-23T12:09:44.358Z,11.13
2019-03-23T12:11:49.705Z,10.32
2019-03-23T12:13:54.007Z,10.55
2019-03-23T12:15:59.475Z,11.11
2019-03-23T12:18:05.888Z,11.32
2019-03-23T12:20:10.630Z,11.14
2019-03-23T12:22:17.073Z,11.17
2019-03-23T12:24:21.509Z,10.71
2019-03-23T12:26:25.938Z,10.35
2019-03-23T12:28:30.279Z,10.21
2019-03-23T12:30:34.649Z,10.38
2019-03-23T12:32:38.999Z,10.59
2019-03-23T12:34:44.366Z,10.73
2019-03-23T12:36:48.656Z,11.19
2019-03-23T12:38:52.969Z,11.39
2019-03-23T12:40:57.322Z,11.71
2019-03-23T12:43:01.706Z,11.84
2019-03-23T12:45:07.407Z,12.51
2019-03-23T12:47:11.818Z,13.15
2019-03-23T12:49:16.201Z,13.27
2019-03-23T12:51:20.545Z,13.11
2019-03-23T12:53:24.925Z,13.53
2019-03-23T12:55:29.386Z,13.80
2019-03-23T12:57:33.744Z,13.35
2019-03-23T12:59:38.043Z,13.58
2019-03-23T13:01:48.292Z,13.75
2019-03-23T13:03:52.701Z,13.87
2019-03-23T13:05:57.045Z,13.79
2019-03-23T13:08:01.340Z,14.21
2019-03-23T13:10:07.139Z,14.43
2019-03-23T13:12:11.537Z,14.40
2019-03-23T13:14:15.840Z,14.73
2019-03-23T13:16:20.205Z,14.85
2019-03-23T13:18:27.295Z,15.35
2019-03-23T13:20:30.856Z,15.74
2019-03-23T13:22:41.212Z,15.98
2019-03-23T13:24:45.595Z,15.86
2019-03-23T13:26:49.923Z,16.21
2019-03-23T13:28:54.227Z,16.05
2019-03-23T13:30:58.556Z,16.16
2019-03-23T13:33:02.854Z,16.19
2019-03-23T13:35:07.261Z,16.14
2019-03-23T13:37:11.592Z,16.08
2019-03-23T13:39:15.935Z,16.26
2019-03-23T13:41:20.399Z,16.34
2019-03-23T13:43:24.769Z,16.58
2019-03-23T13:45:29.241Z,16.87
2019-03-23T13:47:33.593Z,17.38
2019-03-23T13:49:37.894Z,17.14
2019-03-23T13:51:42.225Z,17.07
2019-03-23T13:53:46.534Z,16.99
2019-03-23T13:55:50.845Z,17.13
2019-03-23T13:57:55.252Z,17.16
2019-03-23T13:59:59.590Z,17.27
2019-03-23T14:02:04.071Z,17.40
2019-03-23T14:04:08.501Z,17.37
2019-03-23T14:06:13.834Z,17.17
2019-03-23T14:08:18.348Z,17.16
2019-03-23T14:10:23.695Z,17.46
2019-03-23T14:12:28.016Z,17.69
2019-03-23T14:14:32.311Z,17.92
2019-03-23T14:16:36.675Z,18.20
2019-03-23T14:18:41.072Z,18.35
2019-03-23T14:20:45.374Z,18.58
2019-03-23T14:22:50.763Z,18.62
2019-03-23T14:24:55.115Z,18.78
2019-03-23T14:26:59.517Z,18.84
2019-03-23T14:29:03.929Z,19.03
2019-03-23T14:31:08.292Z,19.28
2019-03-23T14:33:12.612Z,19.57
2019-03-23T14:35:17.944Z,19.91
2019-03-23T14:37:22.273Z,19.72
2019-03-23T14:39:26.651Z,19.55
2019-03-23T14:41:30.980Z,19.78
2019-03-23T14:43:35.352Z,20.03
2019-03-23T14:45:40.805Z,20.08
2019-03-23T14:47:45.189Z,20.09
2019-03-23T14:49:49.568Z,20.20
2019-03-23T14:51:53.949Z,20.39
2019-03-23T14:53:59.314Z,20.39
2019-03-23T14:56:03.688Z,20.58
2019-03-23T14:58:08.062Z,20.41
2019-03-23T15:00:12.546Z,20.33
2019-03-23T15:02:16.899Z,20.49
2019-03-23T15:04:22.245Z,20.69
2019-03-23T15:06:26.590Z,21.00
2019-03-23T15:08:31.910Z,21.05
2019-03-23T15:10:36.369Z,21.13
2019-03-23T15:12:40.735Z,21.10
2019-03-23T15:14:45.044Z,21.17
2019-03-23T15:16:49.514Z,21.33
2019-03-23T15:18:53.908Z,21.38
2019-03-23T15:20:58.319Z,21.38
2019-03-23T15:23:02.709Z,21.35
2019-03-23T15:25:07.472Z,21.33
2019-03-23T15:27:11.870Z,21.45
2019-03-23T15:29:16.173Z,21.59
2019-03-23T15:31:20.557Z,21.55
2019-03-23T15:33:25.981Z,21.46
2019-03-23T15:35:30.371Z,21.33
2019-03-23T15:37:34.850Z,21.23
2019-03-23T15:39:39.177Z,21.26
2019-03-23T15:41:43.517Z,21.35
2019-03-23T15:43:47.947Z,21.30
2019-03-23T15:45:52.310Z,21.17
2019-03-23T15:47:57.716Z,21.42
2019-03-23T15:50:02.066Z,21.80
2019-03-23T15:52:06.469Z,21.87
2019-03-23T15:54:10.905Z,22.04
2019-03-23T15:56:16.247Z,22.49
2019-03-23T15:58:20.577Z,22.56
2019-03-23T16:00:25.972Z,22.53
2019-03-23T16:02:30.327Z,22.48
2019-03-23T16:04:34.655Z,22.72
2019-03-23T16:06:38.999Z,22.96
2019-03-23T16:08:43.380Z,22.92
2019-03-23T16:10:47.724Z,22.87
2019-03-23T16:12:52.110Z,22.62
2019-03-23T16:14:57.461Z,22.57
2019-03-23T16:17:01.760Z,22.58
2019-03-23T16:19:06.156Z,22.55
2019-03-23T16:21:10.574Z,22.57
2019-03-23T16:23:15.939Z,22.63
2019-03-23T16:25:21.275Z,22.83
2019-03-23T16:27:25.595Z,23.18
2019-03-23T16:29:30.003Z,23.18
2019-03-23T16:31:34.349Z,23.08
2019-03-23T16:33:38.805Z,23.14
2019-03-23T16:35:43.154Z,23.15
2019-03-23T16:37:49.568Z,23.44
2019-03-23T16:39:53.933Z,23.60
2019-03-23T16:41:59.362Z,23.64
2019-03-23T16:44:03.685Z,23.88
2019-03-23T16:46:08.030Z,23.89
2019-03-23T16:48:12.403Z,23.84
2019-03-23T16:50:18.775Z,23.98
2019-03-23T16:52:23.170Z,24.13
2019-03-23T16:54:27.498Z,24.04
2019-03-23T16:56:31.810Z,23.91
2019-03-23T16:58:36.173Z,23.98
2019-03-23T17:00:40.604Z,24.10
2019-03-23T17:02:44.972Z,24.10
2019-03-23T17:04:51.385Z,24.07
2019-03-23T17:06:56.892Z,24.20
2019-03-23T17:09:02.230Z,24.42
2019-03-23T17:11:06.613Z,24.59
2019-03-23T17:13:12.170Z,24.68
2019-03-23T17:15:16.619Z,24.91
2019-03-23T17:17:21.027Z,25.15
2019-03-23T17:19:25.352Z,25.40
2019-03-23T17:21:29.776Z,25.62
2019-03-23T17:23:34.201Z,25.72
2019-03-23T17:25:38.655Z,25.86
2019-03-23T17:27:43.121Z,26.16
2019-03-23T17:29:47.481Z,26.28
2019-03-23T17:31:51.816Z,26.55
2019-03-23T17:33:56.195Z,26.71
2019-03-23T17:36:00.594Z,26.89
2019-03-23T17:38:05.055Z,27.20
2019-03-23T17:40:09.938Z,27.56
2019-03-23T17:42:14.305Z,28.20
2019-03-23T17:44:18.654Z,29.18
2019-03-23T17:46:23.041Z,30.37
2019-03-23T17:48:27.382Z,31.24
2019-03-23T17:50:32.316Z,31.80
2019-03-23T17:52:36.713Z,32.31
2019-03-23T17:54:41.078Z,32.66
2019-03-23T17:56:45.456Z,33.00
2019-03-23T17:58:49.820Z,33.27
2019-03-23T18:00:54.205Z,33.66
2019-03-23T18:02:58.533Z,33.79
2019-03-23T18:05:02.915Z,34.07
2019-03-23T18:07:07.308Z,34.39
2019-03-23T18:09:11.688Z,34.37
2019-03-23T18:11:16.108Z,34.35
2019-03-23T18:13:20.582Z,34.46
2019-03-23T18:15:24.907Z,34.46
2019-03-23T18:17:29.202Z,34.51
2019-03-23T18:19:33.543Z,34.66
2019-03-23T18:21:38.039Z,34.83
2019-03-23T18:23:42.552Z,34.96
2019-03-23T18:25:48.403Z,35.39
2019-03-23T18:27:52.827Z,35.58
2019-03-23T18:29:57.165Z,35.67
2019-03-23T18:32:01.486Z,35.99
2019-03-23T18:34:05.864Z,36.45
2019-03-23T18:36:10.292Z,36.72
2019-03-23T18:38:14.816Z,37.03
2019-03-23T18:40:19.338Z,37.41
2019-03-23T18:42:23.665Z,37.87
2019-03-23T18:44:27.970Z,38.41
2019-03-23T18:46:32.373Z,38.85
2019-03-23T18:48:36.797Z,39.15
2019-03-23T18:50:42.739Z,39.33
2019-03-23T18:52:48.361Z,39.61
2019-03-23T18:54:52.731Z,39.64
2019-03-23T18:56:58.159Z,39.58
2019-03-23T18:59:03.679Z,39.72
2019-03-23T19:01:08.214Z,39.95
2019-03-23T19:03:12.731Z,40.03
2019-03-23T19:05:17.089Z,40.05
2019-03-23T19:07:21.391Z,40.07
2019-03-23T19:09:26.814Z,40.14
2019-03-23T19:11:32.197Z,40.10
2019-03-23T19:13:38.081Z,40.33
2019-03-23T19:15:42.640Z,40.56
2019-03-23T19:17:48.373Z,41.03
2019-03-23T19:19:52.751Z,41.20
2019-03-23T19:21:57.116Z,41.58
2019-03-23T19:24:01.445Z,41.49
2019-03-23T19:26:06.844Z,41.63
2019-03-23T19:28:11.287Z,41.82
2019-03-23T19:30:15.916Z,41.97
2019-03-23T19:32:20.227Z,42.11
2019-03-23T19:34:24.555Z,42.61
2019-03-23T19:36:28.858Z,43.08
2019-03-23T19:38:34.209Z,43.43
2019-03-23T19:40:38.579Z,43.58
2019-03-23T19:42:42.960Z,43.60
2019-03-23T19:44:48.287Z,43.81
2019-03-23T19:46:52.756Z,44.08
2019-03-23T19:48:57.102Z,44.53
2019-03-23T19:51:03.710Z,44.73
2019-03-23T19:53:07.486Z,44.78
2019-03-23T19:55:11.935Z,44.69
2019-03-23T19:57:16.355Z,44.59
2019-03-23T19:59:20.728Z,44.86
2019-03-23T20:01:25.119Z,44.90
2019-03-23T20:03:29.460Z,44.88
2019-03-23T20:05:33.782Z,44.95
2019-03-23T20:07:40.223Z,45.10
2019-03-23T20:09:45.568Z,45.44
2019-03-23T20:11:50.926Z,45.35
2019-03-23T20:13:59.047Z,45.24
2019-03-23T20:16:01.400Z,45.19
2019-03-23T20:18:06.079Z,45.24
2019-03-23T20:20:11.187Z,45.22
2019-03-23T20:22:15.653Z,45.33
2019-03-23T20:24:20.044Z,45.52
2019-03-23T20:26:24.433Z,45.58
2019-03-23T20:28:28.778Z,45.64
2019-03-23T20:30:34.175Z,45.71
2019-03-23T20:32:38.574Z,45.87
2019-03-23T20:34:42.883Z,45.88
2019-03-23T20:36:47.255Z,45.86
2019-03-23T20:38:51.625Z,45.88
2019-03-23T20:40:56.026Z,45.96
2019-03-23T20:43:00.383Z,45.96
2019-03-23T20:45:05.357Z,45.99
2019-03-23T20:47:09.979Z,46.00
2019-03-23T20:49:16.219Z,46.06
2019-03-23T20:51:20.792Z,46.45
2019-03-23T20:53:31.018Z,46.99
2019-03-23T20:55:36.377Z,47.56
2019-03-23T20:57:40.705Z,48.09
2019-03-23T20:59:46.033Z,48.53
2019-03-23T21:01:50.495Z,48.83
2019-03-23T21:03:54.949Z,49.20
2019-03-23T21:05:59.286Z,49.41
2019-03-23T21:08:03.734Z,49.57
2019-03-23T21:10:08.207Z,49.70
2019-03-23T21:12:12.643Z,49.79
2019-03-23T21:14:20.465Z,49.88
2019-03-23T21:16:24.128Z,49.68
2019-03-23T21:18:28.492Z,49.50
2019-03-23T21:20:32.960Z,49.24
2019-03-23T21:22:37.309Z,48.78
2019-03-23T21:24:41.624Z,48.45
2019-03-23T21:26:46.061Z,48.12
2019-03-23T21:28:51.637Z,47.83
2019-03-23T21:30:57.146Z,47.48
2019-03-23T21:33:01.607Z,47.23
2019-03-23T21:35:06.407Z,47.08
2019-03-23T21:37:10.835Z,46.85
2019-03-23T21:39:15.218Z,46.85
2019-03-23T21:41:19.622Z,46.60
2019-03-23T21:43:24.941Z,46.54
2019-03-23T21:45:29.349Z,46.50
2019-03-23T21:47:33.839Z,46.52
2019-03-23T21:49:38.200Z,46.48
2019-03-23T21:51:42.566Z,46.51
2019-03-23T21:53:47.023Z,46.29
2019-03-23T21:55:52.451Z,46.12
2019-03-23T21:57:57.975Z,46.04
2019-03-23T22:00:02.348Z,45.98
2019-03-23T22:02:06.665Z,45.99
2019-03-23T22:04:11.129Z,46.10
2019-03-23T22:06:15.516Z,46.06
2019-03-23T22:08:19.900Z,45.89
2019-03-23T22:10:25.304Z,45.66
2019-03-23T22:12:29.745Z,45.57
2019-03-23T22:14:41.530Z,45.58
2019-03-23T22:16:41.312Z,45.66
2019-03-23T22:18:45.720Z,45.77
2019-03-23T22:20:50.124Z,45.89
2019-03-23T22:22:54.578Z,45.99
2019-03-23T22:24:58.924Z,46.07
2019-03-23T22:27:03.358Z,46.09
2019-03-23T22:29:07.734Z,46.10
2019-03-23T22:31:12.082Z,46.12
2019-03-23T22:33:16.464Z,46.30
2019-03-23T22:35:20.882Z,46.43
2019-03-23T22:37:26.285Z,46.43
2019-03-23T22:39:30.625Z,46.45
2019-03-23T22:41:34.986Z,46.62
2019-03-23T22:43:39.307Z,46.82
2019-03-23T22:45:43.654Z,46.91
2019-03-23T22:47:48.080Z,47.10
2019-03-23T22:49:52.440Z,47.19
2019-03-23T22:51:56.760Z,47.52
2019-03-23T22:54:02.146Z,47.89
2019-03-23T22:56:06.586Z,48.12
2019-03-23T22:58:10.935Z,48.26
2019-03-23T23:00:18.282Z,48.29
2019-03-23T23:02:23.692Z,48.49
2019-03-23T23:04:28.156Z,48.61
2019-03-23T23:06:32.494Z,48.70
2019-03-23T23:08:36.871Z,48.85
2019-03-23T23:10:42.320Z,48.94
2019-03-23T23:12:46.680Z,48.92
2019-03-23T23:14:52.648Z,48.73
2019-03-23T23:16:58.329Z,48.57
2019-03-23T23:19:02.680Z,48.45
2019-03-23T23:21:06.994Z,48.50
2019-03-23T23:23:11.367Z,48.51
2019-03-23T23:25:15.795Z,48.69
2019-03-23T23:27:21.159Z,48.82
2019-03-23T23:29:25.560Z,49.03
2019-03-23T23:31:29.918Z,49.40
2019-03-23T23:33:34.226Z,49.60
2019-03-23T23:35:38.711Z,49.72
2019-03-23T23:37:44.080Z,49.99
2019-03-23T23:39:48.375Z,50.16
2019-03-23T23:41:52.711Z,50.34
2019-03-23T23:43:58.030Z,50.59
2019-03-23T23:46:02.364Z,50.74
2019-03-23T23:48:06.725Z,50.91
2019-03-23T23:50:12.463Z,51.20
2019-03-23T23:52:16.829Z,51.41
2019-03-23T23:54:21.168Z,51.53
2019-03-23T23:56:25.473Z,51.53
2019-03-23T23:58:29.762Z,51.58
